Terminal Aerodrome Forecast
Issued by NWS Amarillo, TX

Home | Current Version | Previous Version | Text Only | Print | Product List | Glossary On
Versions: 1 2 3 4 5 6 7 8 9 10 11 12 13 14 15
199
FTUS44 KAMA 222320
TAFDHT
TAF
KDHT 222320Z 2300/2324 16017G25KT P6SM VCTS BKN100CB
      TEMPO 2300/2302 4SM -TSRA BR OVC040CB
     FM230200 16018KT P6SM BKN250
     FM231800 17020G30KT P6SM OVC015 PROB30 2318/2324 5SM -TSRA BR
      OVC010CB=

USA.gov is the U.S. government's official web portal to all federal, state and local government web resources and services.